Sabinal, Texas
Current Conditions -  °F | °C
As of 12:15 PM on Friday 28 Nov 2014 (Local Time) from KUVA Reporting Station
Clear Clear  
Wind Chill: 63°   Ceiling: Unl
Heat Index: 63°   Visibility: 10mi
Dew Point: 53°   Wind: 10mph
Humidity: 69%   Direction: 190°S
Pressure: 30.26"   Gusts: NA
Location:  29.32°N, 99.47°W
Report Text: KUVA 281815Z AUTO 19009KT 10SM CLR 17/11 A3026 RMK AO2 T01710114
Loading
Personal Weather Stations






























Interactive Weather Map New forecast layout! Learn more

10-Day Weather Forecast

Advertisements
Track Severe Weather on mobile